sensor_id;sensor_type;location;lat;lon;timestamp;temperature;humidity
20204;DHT22;10261;49.010;12.034;2023-07-09T00:00:29;17.90;99.90
20204;DHT22;10261;49.010;12.034;2023-07-09T00:01:31;17.90;99.90
20204;DHT22;10261;49.010;12.034;2023-07-09T00:02:34;17.90;99.90
20204;DHT22;10261;49.010;12.034;2023-07-09T00:03:36;17.90;99.90
20204;DHT22;10261;49.010;12.034;2023-07-09T00:04:40;17.90;99.90
20204;DHT22;10261;49.010;12.034;2023-07-09T00:05:42;17.90;99.90
20204;DHT22;10261;49.010;12.034;2023-07-09T00:06:48;17.90;99.90
20204;DHT22;10261;49.010;12.034;2023-07-09T00:07:50;17.80;99.90
20204;DHT22;10261;49.010;12.034;2023-07-09T00:08:56;17.80;99.90
20204;DHT22;10261;49.010;12.034;2023-07-09T00:09:59;17.80;99.90
20204;DHT22;10261;49.010;12.034;2023-07-09T00:11:02;17.80;99.90
20204;DHT22;10261;49.010;12.034;2023-07-09T00:12:06;17.70;99.90
20204;DHT22;10261;49.010;12.034;2023-07-09T00:13:09;17.70;99.90
20204;DHT22;10261;49.010;12.034;2023-07-09T00:14:14;17.70;99.90
20204;DHT22;10261;49.010;12.034;2023-07-09T00:15:16;17.70;99.90
20204;DHT22;10261;49.010;12.034;2023-07-09T00:16:23;17.70;99.90
20204;DHT22;10261;49.010;12.034;2023-07-09T00:17:27;17.70;99.90
20204;DHT22;10261;49.010;12.034;2023-07-09T00:18:32;17.70;99.90
20204;DHT22;10261;49.010;12.034;2023-07-09T00:19:34;17.70;99.90
20204;DHT22;10261;49.010;12.034;2023-07-09T00:20:38;17.70;99.90
20204;DHT22;10261;49.010;12.034;2023-07-09T00:21:40;17.70;99.90
20204;DHT22;10261;49.010;12.034;2023-07-09T00:22:43;17.70;99.90
20204;DHT22;10261;49.010;12.034;2023-07-09T00:23:53;17.70;99.90
20204;DHT22;10261;49.010;12.034;2023-07-09T00:24:56;17.80;99.90
20204;DHT22;10261;49.010;12.034;2023-07-09T00:25:58;17.80;99.90
20204;DHT22;10261;49.010;12.034;2023-07-09T00:27:08;17.80;99.90
20204;DHT22;10261;49.010;12.034;2023-07-09T00:28:13;17.70;99.90
20204;DHT22;10261;49.010;12.034;2023-07-09T00:29:17;17.70;99.90
20204;DHT22;10261;49.010;12.034;2023-07-09T00:30:20;17.70;99.90
20204;DHT22;10261;49.010;12.034;2023-07-09T00:31:25;17.70;99.90
20204;DHT22;10261;49.010;12.034;2023-07-09T00:32:27;17.70;99.90
20204;DHT22;10261;49.010;12.034;2023-07-09T00:33:30;17.70;99.90
20204;DHT22;10261;49.010;12.034;2023-07-09T00:34:33;17.70;99.90
20204;DHT22;10261;49.010;12.034;2023-07-09T00:35:37;17.70;99.90
20204;DHT22;10261;49.010;12.034;2023-07-09T00:36:42;17.70;99.90
20204;DHT22;10261;49.010;12.034;2023-07-09T00:37:46;17.70;99.90
20204;DHT22;10261;49.010;12.034;2023-07-09T00:38:49;17.70;99.90
20204;DHT22;10261;49.010;12.034;2023-07-09T00:39:53;17.70;99.90
20204;DHT22;10261;49.010;12.034;2023-07-09T00:41:01;17.70;99.90
20204;DHT22;10261;49.010;12.034;2023-07-09T00:42:06;17.60;99.90
20204;DHT22;10261;49.010;12.034;2023-07-09T00:43:15;17.60;99.90
20204;DHT22;10261;49.010;12.034;2023-07-09T00:44:27;17.60;99.90
20204;DHT22;10261;49.010;12.034;2023-07-09T00:45:31;17.60;99.90
20204;DHT22;10261;49.010;12.034;2023-07-09T00:48:16;17.50;99.90
20204;DHT22;10261;49.010;12.034;2023-07-09T00:49:28;17.50;99.90
20204;DHT22;10261;49.010;12.034;2023-07-09T00:50:37;17.50;99.90
20204;DHT22;10261;49.010;12.034;2023-07-09T00:51:46;17.50;99.90
20204;DHT22;10261;49.010;12.034;2023-07-09T00:52:51;17.50;99.90
20204;DHT22;10261;49.010;12.034;2023-07-09T00:53:59;17.50;99.90
20204;DHT22;10261;49.010;12.034;2023-07-09T00:55:06;16.60;99.90
20204;DHT22;10261;49.010;12.034;2023-07-09T00:56:14;17.50;99.90
20204;DHT22;10261;49.010;12.034;2023-07-09T00:57:19;17.50;99.90
20204;DHT22;10261;49.010;12.034;2023-07-09T00:58:25;17.50;99.90
20204;DHT22;10261;49.010;12.034;2023-07-09T00:59:30;17.50;99.90
20204;DHT22;10261;49.010;12.034;2023-07-09T01:00:43;17.50;99.90
20204;DHT22;10261;49.010;12.034;2023-07-09T01:01:49;17.50;99.90
20204;DHT22;10261;49.010;12.034;2023-07-09T01:02:52;17.50;99.90
20204;DHT22;10261;49.010;12.034;2023-07-09T01:03:57;17.50;99.90
20204;DHT22;10261;49.010;12.034;2023-07-09T01:05:01;17.50;99.90
20204;DHT22;10261;49.010;12.034;2023-07-09T01:06:05;17.60;99.90
20204;DHT22;10261;49.010;12.034;2023-07-09T01:07:09;17.60;99.90
20204;DHT22;10261;49.010;12.034;2023-07-09T01:08:11;17.50;99.90
20204;DHT22;10261;49.010;12.034;2023-07-09T01:09:14;17.50;99.90
20204;DHT22;10261;49.010;12.034;2023-07-09T01:10:18;17.50;99.90
20204;DHT22;10261;49.010;12.034;2023-07-09T01:11:21;17.40;99.90
20204;DHT22;10261;49.010;12.034;2023-07-09T01:12:24;17.40;99.90
20204;DHT22;10261;49.010;12.034;2023-07-09T01:13:28;17.40;99.90
20204;DHT22;10261;49.010;12.034;2023-07-09T01:14:31;17.40;99.90
20204;DHT22;10261;49.010;12.034;2023-07-09T01:15:34;17.40;99.90
20204;DHT22;10261;49.010;12.034;2023-07-09T01:16:46;17.40;99.90
20204;DHT22;10261;49.010;12.034;2023-07-09T01:17:48;17.40;99.90
20204;DHT22;10261;49.010;12.034;2023-07-09T01:18:55;17.40;99.90
20204;DHT22;10261;49.010;12.034;2023-07-09T01:19:57;17.40;99.90
20204;DHT22;10261;49.010;12.034;2023-07-09T01:21:07;17.40;99.90
20204;DHT22;10261;49.010;12.034;2023-07-09T01:22:10;17.30;99.90
20204;DHT22;10261;49.010;12.034;2023-07-09T01:23:13;17.30;99.90
20204;DHT22;10261;49.010;12.034;2023-07-09T01:24:50;17.30;99.90
20204;DHT22;10261;49.010;12.034;2023-07-09T01:25:53;17.30;99.90
20204;DHT22;10261;49.010;12.034;2023-07-09T01:26:56;17.30;99.90
20204;DHT22;10261;49.010;12.034;2023-07-09T01:27:59;17.30;99.90
20204;DHT22;10261;49.010;12.034;2023-07-09T01:29:01;17.30;99.90
20204;DHT22;10261;49.010;12.034;2023-07-09T01:30:07;17.30;99.90
20204;DHT22;10261;49.010;12.034;2023-07-09T01:31:09;17.30;99.90
20204;DHT22;10261;49.010;12.034;2023-07-09T01:32:14;17.30;99.90
20204;DHT22;10261;49.010;12.034;2023-07-09T01:33:16;17.30;99.90
20204;DHT22;10261;49.010;12.034;2023-07-09T01:34:19;17.30;99.90
20204;DHT22;10261;49.010;12.034;2023-07-09T01:35:24;17.30;99.90
20204;DHT22;10261;49.010;12.034;2023-07-09T01:36:29;17.30;99.90
20204;DHT22;10261;49.010;12.034;2023-07-09T01:37:32;17.30;99.90
20204;DHT22;10261;49.010;12.034;2023-07-09T01:38:35;17.30;99.90
20204;DHT22;10261;49.010;12.034;2023-07-09T01:39:37;17.40;99.90
20204;DHT22;10261;49.010;12.034;2023-07-09T01:40:42;17.40;99.90
20204;DHT22;10261;49.010;12.034;2023-07-09T01:41:43;17.40;99.90
20204;DHT22;10261;49.010;12.034;2023-07-09T01:42:48;17.40;99.90
20204;DHT22;10261;49.010;12.034;2023-07-09T01:43:50;17.40;99.90
20204;DHT22;10261;49.010;12.034;2023-07-09T01:44:53;17.40;99.90
20204;DHT22;10261;49.010;12.034;2023-07-09T01:45:55;17.40;99.90
20204;DHT22;10261;49.010;12.034;2023-07-09T01:46:59;17.40;99.90
20204;DHT22;10261;49.010;12.034;2023-07-09T01:48:04;17.30;99.90
20204;DHT22;10261;49.010;12.034;2023-07-09T01:49:06;17.30;99.90
20204;DHT22;10261;49.010;12.034;2023-07-09T01:50:11;17.20;99.90
20204;DHT22;10261;49.010;12.034;2023-07-09T01:51:15;17.20;99.90
20204;DHT22;10261;49.010;12.034;2023-07-09T01:52:20;17.20;99.90
20204;DHT22;10261;49.010;12.034;2023-07-09T01:53:25;17.20;99.90
20204;DHT22;10261;49.010;12.034;2023-07-09T01:54:29;17.10;99.90
20204;DHT22;10261;49.010;12.034;2023-07-09T01:55:31;17.20;99.90
20204;DHT22;10261;49.010;12.034;2023-07-09T01:56:35;17.20;99.90
20204;DHT22;10261;49.010;12.034;2023-07-09T01:57:40;17.20;99.90
20204;DHT22;10261;49.010;12.034;2023-07-09T01:58:43;17.20;99.90
20204;DHT22;10261;49.010;12.034;2023-07-09T01:59:46;17.20;99.90
20204;DHT22;10261;49.010;12.034;2023-07-09T02:00:49;17.20;99.90
20204;DHT22;10261;49.010;12.034;2023-07-09T02:01:51;17.20;99.90
20204;DHT22;10261;49.010;12.034;2023-07-09T02:02:59;17.20;99.90
20204;DHT22;10261;49.010;12.034;2023-07-09T02:04:03;17.20;99.90
20204;DHT22;10261;49.010;12.034;2023-07-09T02:05:06;17.30;99.90
20204;DHT22;10261;49.010;12.034;2023-07-09T02:06:09;17.20;99.90
20204;DHT22;10261;49.010;12.034;2023-07-09T02:07:11;17.20;99.90
20204;DHT22;10261;49.010;12.034;2023-07-09T02:08:16;17.20;99.90
20204;DHT22;10261;49.010;12.034;2023-07-09T02:09:18;17.20;99.90
20204;DHT22;10261;49.010;12.034;2023-07-09T02:10:20;17.30;99.90
20204;DHT22;10261;49.010;12.034;2023-07-09T02:11:22;17.30;99.90
20204;DHT22;10261;49.010;12.034;2023-07-09T02:12:25;17.30;99.90
20204;DHT22;10261;49.010;12.034;2023-07-09T02:13:27;17.20;99.90
20204;DHT22;10261;49.010;12.034;2023-07-09T02:14:30;17.20;99.90
20204;DHT22;10261;49.010;12.034;2023-07-09T02:15:32;17.20;99.90
20204;DHT22;10261;49.010;12.034;2023-07-09T02:16:35;17.20;99.90
20204;DHT22;10261;49.010;12.034;2023-07-09T02:17:37;17.20;99.90
20204;DHT22;10261;49.010;12.034;2023-07-09T02:18:40;17.30;99.90
20204;DHT22;10261;49.010;12.034;2023-07-09T02:19:42;17.20;99.90
20204;DHT22;10261;49.010;12.034;2023-07-09T02:20:46;17.20;99.90
20204;DHT22;10261;49.010;12.034;2023-07-09T02:21:48;17.20;99.90
20204;DHT22;10261;49.010;12.034;2023-07-09T02:22:51;17.10;99.90
20204;DHT22;10261;49.010;12.034;2023-07-09T02:23:54;17.10;99.90
20204;DHT22;10261;49.010;12.034;2023-07-09T02:24:57;17.10;99.90
20204;DHT22;10261;49.010;12.034;2023-07-09T02:25:59;17.10;99.90
20204;DHT22;10261;49.010;12.034;2023-07-09T02:27:04;17.10;99.90
20204;DHT22;10261;49.010;12.034;2023-07-09T02:28:06;17.10;99.90
20204;DHT22;10261;49.010;12.034;2023-07-09T02:29:09;17.10;99.90
20204;DHT22;10261;49.010;12.034;2023-07-09T02:30:11;17.10;99.90
20204;DHT22;10261;49.010;12.034;2023-07-09T02:31:14;17.10;99.90
20204;DHT22;10261;49.010;12.034;2023-07-09T02:32:20;17.10;99.90
20204;DHT22;10261;49.010;12.034;2023-07-09T02:33:24;17.00;99.90
20204;DHT22;10261;49.010;12.034;2023-07-09T02:34:26;17.00;99.90
20204;DHT22;10261;49.010;12.034;2023-07-09T02:35:28;17.10;99.90
20204;DHT22;10261;49.010;12.034;2023-07-09T02:36:30;17.10;99.90
20204;DHT22;10261;49.010;12.034;2023-07-09T02:37:32;17.10;99.90
20204;DHT22;10261;49.010;12.034;2023-07-09T02:38:35;17.10;99.90
20204;DHT22;10261;49.010;12.034;2023-07-09T02:39:38;17.00;99.90
20204;DHT22;10261;49.010;12.034;2023-07-09T02:40:40;17.00;99.90
20204;DHT22;10261;49.010;12.034;2023-07-09T02:41:43;16.90;99.90
20204;DHT22;10261;49.010;12.034;2023-07-09T02:42:45;17.00;99.90
20204;DHT22;10261;49.010;12.034;2023-07-09T02:43:48;17.00;99.90
20204;DHT22;10261;49.010;12.034;2023-07-09T02:44:50;16.90;99.90
20204;DHT22;10261;49.010;12.034;2023-07-09T02:45:53;16.90;99.90
20204;DHT22;10261;49.010;12.034;2023-07-09T02:46:55;16.90;99.90
20204;DHT22;10261;49.010;12.034;2023-07-09T02:47:58;16.90;99.90
20204;DHT22;10261;49.010;12.034;2023-07-09T02:49:00;16.90;99.90
20204;DHT22;10261;49.010;12.034;2023-07-09T02:50:02;16.90;99.90
20204;DHT22;10261;49.010;12.034;2023-07-09T02:51:05;16.90;99.90
20204;DHT22;10261;49.010;12.034;2023-07-09T02:52:07;16.90;99.90
20204;DHT22;10261;49.010;12.034;2023-07-09T02:53:10;16.90;99.90
20204;DHT22;10261;49.010;12.034;2023-07-09T02:54:12;16.90;99.90
20204;DHT22;10261;49.010;12.034;2023-07-09T02:55:17;16.90;99.90
20204;DHT22;10261;49.010;12.034;2023-07-09T02:56:19;16.90;99.90
20204;DHT22;10261;49.010;12.034;2023-07-09T02:57:21;16.90;99.90
20204;DHT22;10261;49.010;12.034;2023-07-09T02:58:23;16.90;99.90
20204;DHT22;10261;49.010;12.034;2023-07-09T02:59:26;16.90;99.90
20204;DHT22;10261;49.010;12.034;2023-07-09T03:00:30;16.90;99.90
20204;DHT22;10261;49.010;12.034;2023-07-09T03:01:33;16.90;99.90
20204;DHT22;10261;49.010;12.034;2023-07-09T03:02:36;16.90;99.90
20204;DHT22;10261;49.010;12.034;2023-07-09T03:03:39;16.90;99.90
20204;DHT22;10261;49.010;12.034;2023-07-09T03:04:41;16.80;99.90
20204;DHT22;10261;49.010;12.034;2023-07-09T03:05:44;16.80;99.90
20204;DHT22;10261;49.010;12.034;2023-07-09T03:06:46;16.80;99.90
20204;DHT22;10261;49.010;12.034;2023-07-09T03:07:49;16.80;99.90
20204;DHT22;10261;49.010;12.034;2023-07-09T03:08:51;16.80;99.90
20204;DHT22;10261;49.010;12.034;2023-07-09T03:09:54;16.80;99.90
20204;DHT22;10261;49.010;12.034;2023-07-09T03:10:58;16.80;99.90
20204;DHT22;10261;49.010;12.034;2023-07-09T03:12:01;16.70;99.90
20204;DHT22;10261;49.010;12.034;2023-07-09T03:13:03;16.70;99.90
20204;DHT22;10261;49.010;12.034;2023-07-09T03:14:06;16.70;99.90
20204;DHT22;10261;49.010;12.034;2023-07-09T03:15:08;16.80;99.90
20204;DHT22;10261;49.010;12.034;2023-07-09T03:16:11;16.80;99.90
20204;DHT22;10261;49.010;12.034;2023-07-09T03:17:13;16.80;99.90
20204;DHT22;10261;49.010;12.034;2023-07-09T03:18:16;16.80;99.90
20204;DHT22;10261;49.010;12.034;2023-07-09T03:19:18;16.80;99.90
20204;DHT22;10261;49.010;12.034;2023-07-09T03:20:21;16.80;99.90
20204;DHT22;10261;49.010;12.034;2023-07-09T03:21:24;16.80;99.90
20204;DHT22;10261;49.010;12.034;2023-07-09T03:22:27;16.80;99.90
20204;DHT22;10261;49.010;12.034;2023-07-09T03:23:29;16.90;99.90
20204;DHT22;10261;49.010;12.034;2023-07-09T03:24:32;16.90;99.90
20204;DHT22;10261;49.010;12.034;2023-07-09T03:25:33;16.90;99.90
20204;DHT22;10261;49.010;12.034;2023-07-09T03:26:38;16.80;99.90
20204;DHT22;10261;49.010;12.034;2023-07-09T03:27:40;16.80;99.90
20204;DHT22;10261;49.010;12.034;2023-07-09T03:28:42;16.90;99.90
20204;DHT22;10261;49.010;12.034;2023-07-09T03:29:44;16.80;99.90
20204;DHT22;10261;49.010;12.034;2023-07-09T03:30:48;16.80;99.90
20204;DHT22;10261;49.010;12.034;2023-07-09T03:31:50;16.70;99.90
20204;DHT22;10261;49.010;12.034;2023-07-09T03:32:53;16.70;99.90
20204;DHT22;10261;49.010;12.034;2023-07-09T03:33:55;16.70;99.90
20204;DHT22;10261;49.010;12.034;2023-07-09T03:34:58;16.80;99.90
20204;DHT22;10261;49.010;12.034;2023-07-09T03:36:00;16.80;99.90
20204;DHT22;10261;49.010;12.034;2023-07-09T03:37:03;16.80;99.90
20204;DHT22;10261;49.010;12.034;2023-07-09T03:38:07;16.80;99.90
20204;DHT22;10261;49.010;12.034;2023-07-09T03:39:09;16.80;99.90
20204;DHT22;10261;49.010;12.034;2023-07-09T03:40:20;16.80;99.90
20204;DHT22;10261;49.010;12.034;2023-07-09T03:41:22;16.80;99.90
20204;DHT22;10261;49.010;12.034;2023-07-09T03:42:27;16.80;99.90
20204;DHT22;10261;49.010;12.034;2023-07-09T03:43:29;16.80;99.90
20204;DHT22;10261;49.010;12.034;2023-07-09T03:44:32;16.80;99.90
20204;DHT22;10261;49.010;12.034;2023-07-09T03:45:34;16.80;99.90
20204;DHT22;10261;49.010;12.034;2023-07-09T03:46:37;16.90;99.90
20204;DHT22;10261;49.010;12.034;2023-07-09T03:47:39;16.90;99.90
20204;DHT22;10261;49.010;12.034;2023-07-09T03:48:42;16.90;99.90
20204;DHT22;10261;49.010;12.034;2023-07-09T03:49:44;17.00;99.90
20204;DHT22;10261;49.010;12.034;2023-07-09T03:50:48;16.90;99.90
20204;DHT22;10261;49.010;12.034;2023-07-09T03:51:50;17.00;99.90
20204;DHT22;10261;49.010;12.034;2023-07-09T03:52:53;16.90;99.90
20204;DHT22;10261;49.010;12.034;2023-07-09T03:53:55;16.90;99.90
20204;DHT22;10261;49.010;12.034;2023-07-09T03:54:58;16.90;99.90
20204;DHT22;10261;49.010;12.034;2023-07-09T03:56:02;16.90;99.90
20204;DHT22;10261;49.010;12.034;2023-07-09T03:57:05;16.80;99.90
20204;DHT22;10261;49.010;12.034;2023-07-09T03:58:10;16.80;99.90
20204;DHT22;10261;49.010;12.034;2023-07-09T03:59:13;16.80;99.90
20204;DHT22;10261;49.010;12.034;2023-07-09T04:00:15;16.80;99.90
20204;DHT22;10261;49.010;12.034;2023-07-09T04:01:20;16.90;99.90
20204;DHT22;10261;49.010;12.034;2023-07-09T04:02:22;16.90;99.90
20204;DHT22;10261;49.010;12.034;2023-07-09T04:03:25;16.90;99.90
20204;DHT22;10261;49.010;12.034;2023-07-09T04:04:27;16.90;99.90
20204;DHT22;10261;49.010;12.034;2023-07-09T04:05:30;16.90;99.90
20204;DHT22;10261;49.010;12.034;2023-07-09T04:06:32;16.90;99.90
20204;DHT22;10261;49.010;12.034;2023-07-09T04:07:35;16.90;99.90
20204;DHT22;10261;49.010;12.034;2023-07-09T04:08:36;16.90;99.90
20204;DHT22;10261;49.010;12.034;2023-07-09T04:09:39;16.80;99.90
20204;DHT22;10261;49.010;12.034;2023-07-09T04:10:41;16.80;99.90
20204;DHT22;10261;49.010;12.034;2023-07-09T04:11:43;16.90;99.90
20204;DHT22;10261;49.010;12.034;2023-07-09T04:12:46;16.90;99.90
20204;DHT22;10261;49.010;12.034;2023-07-09T04:13:49;16.90;99.90
20204;DHT22;10261;49.010;12.034;2023-07-09T04:14:52;16.90;99.90
20204;DHT22;10261;49.010;12.034;2023-07-09T04:15:54;16.90;99.90
20204;DHT22;10261;49.010;12.034;2023-07-09T04:16:58;16.90;99.90
20204;DHT22;10261;49.010;12.034;2023-07-09T04:18:00;16.90;99.90
20204;DHT22;10261;49.010;12.034;2023-07-09T04:19:03;16.90;99.90
20204;DHT22;10261;49.010;12.034;2023-07-09T04:20:06;16.90;99.90
20204;DHT22;10261;49.010;12.034;2023-07-09T04:21:10;16.90;99.90
20204;DHT22;10261;49.010;12.034;2023-07-09T04:22:12;16.90;99.90
20204;DHT22;10261;49.010;12.034;2023-07-09T04:23:16;16.90;99.90
20204;DHT22;10261;49.010;12.034;2023-07-09T04:24:18;16.90;99.90
20204;DHT22;10261;49.010;12.034;2023-07-09T04:25:21;16.90;99.90
20204;DHT22;10261;49.010;12.034;2023-07-09T04:26:23;16.90;99.90
20204;DHT22;10261;49.010;12.034;2023-07-09T04:27:26;17.00;99.90
20204;DHT22;10261;49.010;12.034;2023-07-09T04:28:29;17.00;99.90
20204;DHT22;10261;49.010;12.034;2023-07-09T04:29:34;17.00;99.90
20204;DHT22;10261;49.010;12.034;2023-07-09T04:30:37;17.00;99.90
20204;DHT22;10261;49.010;12.034;2023-07-09T04:31:40;17.10;99.90
20204;DHT22;10261;49.010;12.034;2023-07-09T04:32:43;17.00;99.90
20204;DHT22;10261;49.010;12.034;2023-07-09T04:33:46;17.00;99.90
20204;DHT22;10261;49.010;12.034;2023-07-09T04:34:48;17.00;99.90
20204;DHT22;10261;49.010;12.034;2023-07-09T04:35:51;17.00;99.90
20204;DHT22;10261;49.010;12.034;2023-07-09T04:36:53;17.00;99.90
20204;DHT22;10261;49.010;12.034;2023-07-09T04:37:56;16.90;99.90
20204;DHT22;10261;49.010;12.034;2023-07-09T04:38:58;16.90;99.90
20204;DHT22;10261;49.010;12.034;2023-07-09T04:40:01;16.90;99.90
20204;DHT22;10261;49.010;12.034;2023-07-09T04:41:03;16.90;99.90
20204;DHT22;10261;49.010;12.034;2023-07-09T04:42:08;16.90;99.90
20204;DHT22;10261;49.010;12.034;2023-07-09T04:43:12;17.00;99.90
20204;DHT22;10261;49.010;12.034;2023-07-09T04:44:15;17.00;99.90
20204;DHT22;10261;49.010;12.034;2023-07-09T04:45:18;17.00;99.90
20204;DHT22;10261;49.010;12.034;2023-07-09T04:46:21;17.00;99.90
20204;DHT22;10261;49.010;12.034;2023-07-09T04:47:23;17.00;99.90
20204;DHT22;10261;49.010;12.034;2023-07-09T04:48:26;17.00;99.90
20204;DHT22;10261;49.010;12.034;2023-07-09T04:49:28;17.00;99.90
20204;DHT22;10261;49.010;12.034;2023-07-09T04:50:31;17.00;99.90
20204;DHT22;10261;49.010;12.034;2023-07-09T04:51:33;17.00;99.90
20204;DHT22;10261;49.010;12.034;2023-07-09T04:52:36;17.10;99.90
20204;DHT22;10261;49.010;12.034;2023-07-09T04:53:38;17.10;99.90
20204;DHT22;10261;49.010;12.034;2023-07-09T04:54:41;17.10;99.90
20204;DHT22;10261;49.010;12.034;2023-07-09T04:55:45;17.10;99.90
20204;DHT22;10261;49.010;12.034;2023-07-09T04:56:48;17.10;99.90
20204;DHT22;10261;49.010;12.034;2023-07-09T04:57:50;17.10;99.90
20204;DHT22;10261;49.010;12.034;2023-07-09T04:58:53;17.10;99.90
20204;DHT22;10261;49.010;12.034;2023-07-09T04:59:55;17.10;99.90
20204;DHT22;10261;49.010;12.034;2023-07-09T05:00:59;17.10;99.90
20204;DHT22;10261;49.010;12.034;2023-07-09T05:02:01;17.10;99.90
20204;DHT22;10261;49.010;12.034;2023-07-09T05:03:05;17.10;99.90
20204;DHT22;10261;49.010;12.034;2023-07-09T05:04:07;17.10;99.90
20204;DHT22;10261;49.010;12.034;2023-07-09T05:05:10;17.10;99.90
20204;DHT22;10261;49.010;12.034;2023-07-09T05:06:13;17.20;99.90
20204;DHT22;10261;49.010;12.034;2023-07-09T05:07:16;17.20;99.90
20204;DHT22;10261;49.010;12.034;2023-07-09T05:08:18;17.20;99.90
20204;DHT22;10261;49.010;12.034;2023-07-09T05:09:22;17.20;99.90
20204;DHT22;10261;49.010;12.034;2023-07-09T05:10:25;17.20;99.90
20204;DHT22;10261;49.010;12.034;2023-07-09T05:11:27;17.20;99.90
20204;DHT22;10261;49.010;12.034;2023-07-09T05:12:29;17.20;99.90
20204;DHT22;10261;49.010;12.034;2023-07-09T05:13:32;17.20;99.90
20204;DHT22;10261;49.010;12.034;2023-07-09T05:14:34;17.20;99.90
20204;DHT22;10261;49.010;12.034;2023-07-09T05:15:40;17.20;99.90
20204;DHT22;10261;49.010;12.034;2023-07-09T05:16:44;17.20;99.90
20204;DHT22;10261;49.010;12.034;2023-07-09T05:17:48;17.20;99.90
20204;DHT22;10261;49.010;12.034;2023-07-09T05:18:50;17.20;99.90
20204;DHT22;10261;49.010;12.034;2023-07-09T05:19:53;17.20;99.90
20204;DHT22;10261;49.010;12.034;2023-07-09T05:20:55;17.30;99.90
20204;DHT22;10261;49.010;12.034;2023-07-09T05:21:58;17.30;99.90
20204;DHT22;10261;49.010;12.034;2023-07-09T05:23:00;17.20;99.90
20204;DHT22;10261;49.010;12.034;2023-07-09T05:24:04;17.30;99.90
20204;DHT22;10261;49.010;12.034;2023-07-09T05:25:07;17.30;99.90
20204;DHT22;10261;49.010;12.034;2023-07-09T05:26:10;17.30;99.90
20204;DHT22;10261;49.010;12.034;2023-07-09T05:27:12;17.30;99.90
20204;DHT22;10261;49.010;12.034;2023-07-09T05:28:15;17.30;99.90
20204;DHT22;10261;49.010;12.034;2023-07-09T05:29:17;17.30;99.90
20204;DHT22;10261;49.010;12.034;2023-07-09T05:30:20;17.40;99.90
20204;DHT22;10261;49.010;12.034;2023-07-09T05:31:22;17.40;99.90
20204;DHT22;10261;49.010;12.034;2023-07-09T05:32:29;17.40;99.90
20204;DHT22;10261;49.010;12.034;2023-07-09T05:33:31;17.40;99.90
20204;DHT22;10261;49.010;12.034;2023-07-09T05:34:34;17.40;99.90
20204;DHT22;10261;49.010;12.034;2023-07-09T05:35:36;17.40;99.90
20204;DHT22;10261;49.010;12.034;2023-07-09T05:36:39;17.40;99.90
20204;DHT22;10261;49.010;12.034;2023-07-09T05:37:41;17.40;99.90
20204;DHT22;10261;49.010;12.034;2023-07-09T05:38:44;17.50;99.90
20204;DHT22;10261;49.010;12.034;2023-07-09T05:39:47;17.50;99.90
20204;DHT22;10261;49.010;12.034;2023-07-09T05:40:59;17.50;99.90
20204;DHT22;10261;49.010;12.034;2023-07-09T05:42:01;17.50;99.90
20204;DHT22;10261;49.010;12.034;2023-07-09T05:43:04;17.60;99.90
20204;DHT22;10261;49.010;12.034;2023-07-09T05:44:06;17.50;99.90
20204;DHT22;10261;49.010;12.034;2023-07-09T05:45:10;17.60;99.90
20204;DHT22;10261;49.010;12.034;2023-07-09T05:46:13;17.60;99.90
20204;DHT22;10261;49.010;12.034;2023-07-09T05:47:16;17.60;99.90
20204;DHT22;10261;49.010;12.034;2023-07-09T05:48:19;17.70;99.90
20204;DHT22;10261;49.010;12.034;2023-07-09T05:49:22;17.70;99.90
20204;DHT22;10261;49.010;12.034;2023-07-09T05:50:25;17.70;99.90
20204;DHT22;10261;49.010;12.034;2023-07-09T05:51:27;17.70;99.90
20204;DHT22;10261;49.010;12.034;2023-07-09T05:52:31;17.70;99.90
20204;DHT22;10261;49.010;12.034;2023-07-09T05:53:33;17.80;99.90
20204;DHT22;10261;49.010;12.034;2023-07-09T05:54:35;17.80;99.90
20204;DHT22;10261;49.010;12.034;2023-07-09T05:55:38;17.70;99.90
20204;DHT22;10261;49.010;12.034;2023-07-09T05:56:39;17.80;99.90
20204;DHT22;10261;49.010;12.034;2023-07-09T05:57:42;17.80;99.90
20204;DHT22;10261;49.010;12.034;2023-07-09T05:58:44;17.80;99.90
20204;DHT22;10261;49.010;12.034;2023-07-09T05:59:47;17.80;99.90
20204;DHT22;10261;49.010;12.034;2023-07-09T06:00:50;17.80;99.90
20204;DHT22;10261;49.010;12.034;2023-07-09T06:01:55;17.90;99.90
20204;DHT22;10261;49.010;12.034;2023-07-09T06:02:57;17.90;99.90
20204;DHT22;10261;49.010;12.034;2023-07-09T06:04:02;17.90;99.90
20204;DHT22;10261;49.010;12.034;2023-07-09T06:05:06;17.90;99.90
20204;DHT22;10261;49.010;12.034;2023-07-09T06:06:10;17.90;99.90
20204;DHT22;10261;49.010;12.034;2023-07-09T06:07:13;18.00;99.90
20204;DHT22;10261;49.010;12.034;2023-07-09T06:08:16;18.00;99.90
20204;DHT22;10261;49.010;12.034;2023-07-09T06:09:19;18.00;99.90
20204;DHT22;10261;49.010;12.034;2023-07-09T06:10:22;18.00;99.90
20204;DHT22;10261;49.010;12.034;2023-07-09T06:11:24;18.00;99.90
20204;DHT22;10261;49.010;12.034;2023-07-09T06:12:27;18.00;99.90
20204;DHT22;10261;49.010;12.034;2023-07-09T06:13:30;18.00;99.90
20204;DHT22;10261;49.010;12.034;2023-07-09T06:14:33;18.00;99.90
20204;DHT22;10261;49.010;12.034;2023-07-09T06:15:35;18.00;99.90
20204;DHT22;10261;49.010;12.034;2023-07-09T06:16:38;18.00;99.90
20204;DHT22;10261;49.010;12.034;2023-07-09T06:17:41;18.10;99.90
20204;DHT22;10261;49.010;12.034;2023-07-09T06:18:44;18.10;99.90
20204;DHT22;10261;49.010;12.034;2023-07-09T06:19:47;18.10;99.90
20204;DHT22;10261;49.010;12.034;2023-07-09T06:20:54;18.10;99.90
20204;DHT22;10261;49.010;12.034;2023-07-09T06:21:56;18.10;99.90
20204;DHT22;10261;49.010;12.034;2023-07-09T06:22:59;18.20;99.90
20204;DHT22;10261;49.010;12.034;2023-07-09T06:24:02;18.20;99.90
20204;DHT22;10261;49.010;12.034;2023-07-09T06:25:05;18.20;99.90
20204;DHT22;10261;49.010;12.034;2023-07-09T06:26:07;18.20;99.90
20204;DHT22;10261;49.010;12.034;2023-07-09T06:27:11;18.20;99.90
20204;DHT22;10261;49.010;12.034;2023-07-09T06:28:14;18.30;99.90
20204;DHT22;10261;49.010;12.034;2023-07-09T06:29:17;18.20;99.90
20204;DHT22;10261;49.010;12.034;2023-07-09T06:30:19;18.20;99.90
20204;DHT22;10261;49.010;12.034;2023-07-09T06:31:22;18.30;99.90
20204;DHT22;10261;49.010;12.034;2023-07-09T06:32:26;18.20;99.90
20204;DHT22;10261;49.010;12.034;2023-07-09T06:33:29;18.30;99.90
20204;DHT22;10261;49.010;12.034;2023-07-09T06:34:31;18.20;99.90
20204;DHT22;10261;49.010;12.034;2023-07-09T06:35:35;18.30;99.90